Time;durP1;ratioP1;P1;durP2;ratioP2;P2;SDS_P1;SDS_P2;PMS_P1;PMS_P2;Temp;Humidity;BMP_temperature;BMP_pressure;BME280_temperature;BME280_humidity;BME280_pressure;Samples;Min_cycle;Max_cycle;Signal;HPM_P1;HPM_P2
2023/09/11 00:00:56;;;;;;;;;;;21.20;99.90;;;;;;6672410;88;20093;-79
2023/09/11 00:10:58;;;;;;;;;;;20.90;99.90;;;;;;6676345;88;20053;-77
2023/09/11 00:20:58;;;;;;;;;;;20.80;99.90;;;;;;6676898;89;20060;-79
2023/09/11 00:30:59;;;;;;;;;;;20.70;99.90;;;;;;6672966;88;20077;-78
2023/09/11 00:41:00;;;;;;;;;;;20.90;99.90;;;;;;6672588;89;20601;-78
2023/09/11 00:51:00;;;;;;;;;;;20.80;99.90;;;;;;6698417;78;20087;-77
2023/09/11 01:01:01;;;;;;;;;;;20.90;99.90;;;;;;6720250;88;20125;-78
2023/09/11 01:11:02;;;;;;;;;;;20.60;99.90;;;;;;6719949;88;20590;-77
2023/09/11 01:21:21;;;;;;;;;;;20.30;99.90;;;;;;6721309;88;20186;-78
2023/09/11 01:31:23;;;;;;;;;;;20.10;99.90;;;;;;6722546;88;20054;-78
2023/09/11 01:41:25;;;;;;;;;;;20.00;99.90;;;;;;6725094;88;20067;-78
2023/09/11 01:51:27;;;;;;;;;;;19.90;99.90;;;;;;6725745;88;20692;-78
2023/09/11 02:01:27;;;;;;;;;;;19.70;99.90;;;;;;6738107;88;20156;-78
2023/09/11 02:11:28;;;;;;;;;;;19.70;99.90;;;;;;6742165;88;20497;-77
2023/09/11 02:21:28;;;;;;;;;;;19.70;99.90;;;;;;6729252;88;20062;-78
2023/09/11 02:31:29;;;;;;;;;;;19.70;99.90;;;;;;6742336;88;20132;-78
2023/09/11 02:41:29;;;;;;;;;;;19.70;99.90;;;;;;6735323;88;20059;-77
2023/09/11 02:51:30;;;;;;;;;;;19.70;99.90;;;;;;6734677;87;20087;-77
2023/09/11 03:01:31;;;;;;;;;;;19.70;99.90;;;;;;6737233;88;20062;-78
2023/09/11 03:11:32;;;;;;;;;;;19.40;99.90;;;;;;6737656;88;20155;-78
2023/09/11 03:21:32;;;;;;;;;;;19.40;99.90;;;;;;6743345;88;20083;-78
2023/09/11 03:31:33;;;;;;;;;;;19.50;99.90;;;;;;6736237;88;20114;-77
2023/09/11 03:41:33;;;;;;;;;;;19.20;99.90;;;;;;6739635;88;20200;-77
2023/09/11 03:51:34;;;;;;;;;;;19.20;99.90;;;;;;6738668;88;20096;-77
2023/09/11 04:01:34;;;;;;;;;;;19.40;99.90;;;;;;6739822;88;20100;-78
2023/09/11 04:11:35;;;;;;;;;;;19.40;99.90;;;;;;6741650;88;20083;-78
2023/09/11 04:21:36;;;;;;;;;;;19.40;99.90;;;;;;6734387;88;20117;-79
2023/09/11 04:31:36;;;;;;;;;;;19.20;99.90;;;;;;6744483;88;20051;-79
2023/09/11 04:41:37;;;;;;;;;;;19.10;99.90;;;;;;6748434;88;20059;-77
2023/09/11 04:51:37;;;;;;;;;;;19.00;99.90;;;;;;6742829;88;20074;-78
2023/09/11 05:01:38;;;;;;;;;;;18.80;99.90;;;;;;6739770;88;20092;-78
2023/09/11 05:11:38;;;;;;;;;;;18.80;99.90;;;;;;6741425;88;20500;-77
2023/09/11 05:21:38;;;;;;;;;;;18.60;99.90;;;;;;6741525;88;20105;-77
2023/09/11 05:31:39;;;;;;;;;;;18.70;99.90;;;;;;6742497;88;20066;-79
2023/09/11 05:41:39;;;;;;;;;;;18.60;99.90;;;;;;6741000;88;20081;-78
2023/09/11 05:51:40;;;;;;;;;;;18.90;99.90;;;;;;6747332;88;20089;-78
2023/09/11 06:01:40;;;;;;;;;;;19.10;99.90;;;;;;6748027;88;20066;-78
2023/09/11 06:11:41;;;;;;;;;;;19.30;99.90;;;;;;6746723;88;20097;-78
2023/09/11 06:21:45;;;;;;;;;;;19.50;99.90;;;;;;6753734;88;20117;-77
2023/09/11 06:31:45;;;;;;;;;;;19.90;99.90;;;;;;6738763;88;20138;-78
2023/09/11 06:41:46;;;;;;;;;;;20.30;99.90;;;;;;6747023;88;20193;-78
2023/09/11 06:51:46;;;;;;;;;;;20.70;99.90;;;;;;6735244;77;20074;-77
2023/09/11 07:01:47;;;;;;;;;;;21.10;99.90;;;;;;6723396;88;20070;-77
2023/09/11 07:11:49;;;;;;;;;;;21.70;99.90;;;;;;6715419;88;20088;-77
2023/09/11 07:21:49;;;;;;;;;;;22.40;99.90;;;;;;6714566;88;20617;-77
2023/09/11 07:31:50;;;;;;;;;;;22.80;99.90;;;;;;6720699;88;20126;-79
2023/09/11 07:41:50;;;;;;;;;;;23.20;99.90;;;;;;6735031;88;20175;-81
2023/09/11 07:51:50;;;;;;;;;;;23.50;99.90;;;;;;6735814;88;20063;-79
2023/09/11 08:01:51;;;;;;;;;;;23.80;99.90;;;;;;6733453;88;20066;-80
2023/09/11 08:11:51;;;;;;;;;;;24.40;99.90;;;;;;6731098;88;20078;-79
2023/09/11 08:21:54;;;;;;;;;;;25.00;99.90;;;;;;6749384;88;20065;-80
2023/09/11 08:31:54;;;;;;;;;;;25.60;99.90;;;;;;6751313;88;20070;-79
2023/09/11 08:41:57;;;;;;;;;;;26.40;99.90;;;;;;6747285;88;20065;-79
2023/09/11 08:51:59;;;;;;;;;;;26.90;99.90;;;;;;6751614;88;20048;-81
2023/09/11 09:02:00;;;;;;;;;;;27.00;99.90;;;;;;6734784;88;20069;-81
2023/09/11 09:12:01;;;;;;;;;;;27.80;99.90;;;;;;6734228;88;20059;-80
2023/09/11 09:22:05;;;;;;;;;;;28.40;99.90;;;;;;6751497;88;20069;-81
2023/09/11 09:32:06;;;;;;;;;;;29.20;99.90;;;;;;6734804;88;20507;-80
2023/09/11 09:42:07;;;;;;;;;;;29.70;99.90;;;;;;6731138;88;20534;-81
2023/09/11 09:52:08;;;;;;;;;;;29.90;99.90;;;;;;6719805;88;20111;-80
2023/09/11 10:02:11;;;;;;;;;;;30.10;99.90;;;;;;6729074;88;20539;-82
2023/09/11 10:12:12;;;;;;;;;;;31.30;99.50;;;;;;6733418;88;20066;-80
2023/09/11 10:22:12;;;;;;;;;;;31.90;99.40;;;;;;6735041;88;20147;-80
2023/09/11 10:32:18;;;;;;;;;;;32.80;97.40;;;;;;6745589;88;20074;-80
2023/09/11 10:42:19;;;;;;;;;;;32.70;96.80;;;;;;6744825;88;20489;-81
2023/09/11 10:52:20;;;;;;;;;;;34.40;95.50;;;;;;6741584;88;20058;-81
2023/09/11 11:02:22;;;;;;;;;;;35.60;93.80;;;;;;6735085;88;20077;-78
2023/09/11 11:12:32;;;;;;;;;;;36.60;92.00;;;;;;6743878;88;20146;-78
2023/09/11 11:22:34;;;;;;;;;;;37.00;90.00;;;;;;6734058;88;20054;-78
2023/09/11 11:32:34;;;;;;;;;;;37.00;87.90;;;;;;6741135;88;20042;-80
2023/09/11 11:42:38;;;;;;;;;;;37.30;87.90;;;;;;6738879;88;20053;-81
2023/09/11 11:52:43;;;;;;;;;;;37.40;85.00;;;;;;6734573;88;20650;-79
2023/09/11 12:02:44;;;;;;;;;;;37.20;83.50;;;;;;6735313;88;20147;-79
2023/09/11 12:12:44;;;;;;;;;;;37.40;83.20;;;;;;6741130;88;20667;-79
2023/09/11 12:22:45;;;;;;;;;;;37.90;82.40;;;;;;6730957;88;20077;-78
2023/09/11 12:32:46;;;;;;;;;;;38.60;80.50;;;;;;6721786;88;20503;-78
2023/09/11 12:42:46;;;;;;;;;;;38.40;79.00;;;;;;6728934;88;20081;-78
2023/09/11 12:52:47;;;;;;;;;;;39.10;78.30;;;;;;6728131;78;20081;-80
2023/09/11 13:02:48;;;;;;;;;;;39.20;78.70;;;;;;6735318;88;20094;-77
2023/09/11 13:12:48;;;;;;;;;;;39.30;77.30;;;;;;6737671;88;20527;-78
2023/09/11 13:22:49;;;;;;;;;;;39.40;77.00;;;;;;6723050;88;20062;-78
2023/09/11 13:32:49;;;;;;;;;;;38.90;76.40;;;;;;6725639;88;20430;-78
2023/09/11 13:42:50;;;;;;;;;;;38.90;77.20;;;;;;6742259;88;20094;-80
2023/09/11 13:52:50;;;;;;;;;;;38.40;75.90;;;;;;6733132;88;20098;-78
2023/09/11 14:02:51;;;;;;;;;;;39.00;76.70;;;;;;6732509;88;20168;-78
2023/09/11 14:12:51;;;;;;;;;;;39.30;76.10;;;;;;6741427;88;20060;-77
2023/09/11 14:22:52;;;;;;;;;;;38.80;75.40;;;;;;6738479;88;20068;-78
2023/09/11 14:32:52;;;;;;;;;;;38.70;75.60;;;;;;6750042;88;20537;-79
2023/09/11 14:42:53;;;;;;;;;;;38.80;74.90;;;;;;6752106;88;20038;-78
2023/09/11 14:52:53;;;;;;;;;;;38.10;75.60;;;;;;6740626;87;20062;-80
2023/09/11 15:02:54;;;;;;;;;;;37.70;76.10;;;;;;6739764;88;20580;-80
2023/09/11 15:12:54;;;;;;;;;;;36.80;77.10;;;;;;6759174;88;20254;-80
2023/09/11 15:22:54;;;;;;;;;;;36.50;77.80;;;;;;6751152;88;20058;-80
2023/09/11 15:32:55;;;;;;;;;;;36.40;76.80;;;;;;6739419;88;20118;-78
2023/09/11 15:42:56;;;;;;;;;;;36.10;77.90;;;;;;6741561;88;20131;-80
2023/09/11 15:52:57;;;;;;;;;;;35.10;79.50;;;;;;6739857;88;20107;-79
2023/09/11 16:02:57;;;;;;;;;;;34.30;80.50;;;;;;6741767;88;20042;-78
2023/09/11 16:13:01;;;;;;;;;;;33.70;82.80;;;;;;6735696;88;20544;-79
2023/09/11 16:23:02;;;;;;;;;;;33.50;84.00;;;;;;6718420;88;20081;-79
2023/09/11 16:33:03;;;;;;;;;;;33.10;86.10;;;;;;6721764;88;20527;-78
2023/09/11 16:43:03;;;;;;;;;;;32.60;86.50;;;;;;6717513;88;20066;-79
2023/09/11 16:53:04;;;;;;;;;;;32.10;87.90;;;;;;6716901;88;20059;-78
2023/09/11 17:03:05;;;;;;;;;;;31.80;88.50;;;;;;6733501;88;20075;-77
2023/09/11 17:13:05;;;;;;;;;;;31.50;90.00;;;;;;6732516;88;20128;-74
2023/09/11 17:23:05;;;;;;;;;;;31.20;90.30;;;;;;6735731;88;20564;-75
2023/09/11 17:33:06;;;;;;;;;;;30.70;91.20;;;;;;6735801;88;20090;-77
2023/09/11 17:43:06;;;;;;;;;;;30.40;92.00;;;;;;6720003;88;20046;-77
2023/09/11 17:53:07;;;;;;;;;;;29.90;92.90;;;;;;6722876;88;20072;-78
2023/09/11 18:03:07;;;;;;;;;;;29.50;92.90;;;;;;6737701;88;20071;-78
2023/09/11 18:13:08;;;;;;;;;;;29.20;93.90;;;;;;6735979;88;20062;-76
2023/09/11 18:23:09;;;;;;;;;;;28.70;94.10;;;;;;6736541;88;20078;-77
2023/09/11 18:33:09;;;;;;;;;;;28.40;95.00;;;;;;6734501;88;20136;-76
2023/09/11 18:43:10;;;;;;;;;;;28.10;96.10;;;;;;6736169;88;20069;-78
2023/09/11 18:53:10;;;;;;;;;;;27.70;96.70;;;;;;6732678;88;20119;-76
2023/09/11 19:03:11;;;;;;;;;;;27.50;97.80;;;;;;6726755;88;20538;-76
2023/09/11 19:13:12;;;;;;;;;;;27.20;99.30;;;;;;6718591;88;20066;-78
2023/09/11 19:23:13;;;;;;;;;;;27.10;99.90;;;;;;6722636;88;20210;-77
2023/09/11 19:33:15;;;;;;;;;;;26.90;99.90;;;;;;6725239;88;20175;-78
2023/09/11 19:43:15;;;;;;;;;;;26.70;99.90;;;;;;6730924;88;20059;-78
2023/09/11 19:53:16;;;;;;;;;;;26.50;99.90;;;;;;6717765;88;20568;-78
2023/09/11 20:03:16;;;;;;;;;;;26.40;99.90;;;;;;6715702;88;20531;-76
2023/09/11 20:13:17;;;;;;;;;;;26.20;99.90;;;;;;6716676;88;20601;-78
2023/09/11 20:23:19;;;;;;;;;;;26.10;99.90;;;;;;6717048;88;20707;-78
2023/09/11 20:33:20;;;;;;;;;;;26.00;99.90;;;;;;6727909;88;20095;-78
2023/09/11 20:43:20;;;;;;;;;;;25.80;99.90;;;;;;6720391;88;20174;-77
2023/09/11 20:53:21;;;;;;;;;;;25.60;99.90;;;;;;6721401;88;20091;-76
2023/09/11 21:03:21;;;;;;;;;;;24.80;99.90;;;;;;6715464;88;20217;-77
2023/09/11 21:13:22;;;;;;;;;;;24.40;99.90;;;;;;6712996;88;20755;-76
2023/09/11 21:23:24;;;;;;;;;;;24.50;99.90;;;;;;6715813;88;20050;-77
2023/09/11 21:33:26;;;;;;;;;;;24.50;99.90;;;;;;6715218;88;20054;-77
2023/09/11 21:43:27;;;;;;;;;;;24.50;99.90;;;;;;6724136;88;20688;-76
2023/09/11 21:53:27;;;;;;;;;;;24.50;99.90;;;;;;6727906;88;20157;-76
2023/09/11 22:03:27;;;;;;;;;;;24.50;99.90;;;;;;6727251;88;20689;-75
2023/09/11 22:13:28;;;;;;;;;;;24.50;99.90;;;;;;6730028;88;20084;-75
2023/09/11 22:23:29;;;;;;;;;;;24.40;99.90;;;;;;6735467;88;20556;-76
2023/09/11 23:04:55;;;;;;;;;;;23.90;99.90;;;;;;6718930;88;20209;-78
2023/09/11 23:14:56;;;;;;;;;;;23.80;99.90;;;;;;6729862;88;20121;-78
2023/09/11 23:24:56;;;;;;;;;;;23.70;99.90;;;;;;6715449;88;20889;-78
2023/09/11 23:34:57;;;;;;;;;;;23.60;99.90;;;;;;6715261;88;20197;-79
2023/09/11 23:44:57;;;;;;;;;;;23.40;99.90;;;;;;6713483;88;20896;-78
2023/09/11 23:54:57;;;;;;;;;;;23.30;99.90;;;;;;6716647;88;20082;-78
